sensor_id;sensor_type;location;lat;lon;timestamp;P1;durP1;ratioP1;P2;durP2;ratioP2
38865;SDS011;62686;48.984;8.394;2023-05-16T00:14:29;17.15;;;15.30;;
38865;SDS011;62686;48.984;8.394;2023-05-16T00:16:57;17.80;;;14.93;;
38865;SDS011;62686;48.984;8.394;2023-05-16T00:19:26;18.88;;;16.83;;
38865;SDS011;62686;48.984;8.394;2023-05-16T00:21:55;19.00;;;17.08;;
38865;SDS011;62686;48.984;8.394;2023-05-16T00:24:23;19.23;;;17.20;;
38865;SDS011;62686;48.984;8.394;2023-05-16T00:26:52;19.23;;;17.23;;
38865;SDS011;62686;48.984;8.394;2023-05-16T00:29:20;18.73;;;16.23;;
38865;SDS011;62686;48.984;8.394;2023-05-16T00:31:51;18.92;;;16.77;;
38865;SDS011;62686;48.984;8.394;2023-05-16T00:34:19;18.20;;;16.30;;
38865;SDS011;62686;48.984;8.394;2023-05-16T00:36:48;20.48;;;16.70;;
38865;SDS011;62686;48.984;8.394;2023-05-16T00:39:16;19.75;;;16.50;;
38865;SDS011;62686;48.984;8.394;2023-05-16T00:41:44;18.90;;;16.33;;
38865;SDS011;62686;48.984;8.394;2023-05-16T00:44:13;18.17;;;15.30;;
38865;SDS011;62686;48.984;8.394;2023-05-16T00:46:41;17.05;;;15.25;;
38865;SDS011;62686;48.984;8.394;2023-05-16T00:49:11;16.55;;;14.82;;
38865;SDS011;62686;48.984;8.394;2023-05-16T00:51:39;19.10;;;17.10;;
38865;SDS011;62686;48.984;8.394;2023-05-16T00:54:07;20.90;;;16.00;;
38865;SDS011;62686;48.984;8.394;2023-05-16T00:56:37;17.27;;;15.48;;
38865;SDS011;62686;48.984;8.394;2023-05-16T00:59:05;18.17;;;16.27;;
38865;SDS011;62686;48.984;8.394;2023-05-16T01:01:33;18.65;;;16.65;;
38865;SDS011;62686;48.984;8.394;2023-05-16T01:04:02;19.25;;;17.33;;
38865;SDS011;62686;48.984;8.394;2023-05-16T01:06:33;18.58;;;16.45;;
38865;SDS011;62686;48.984;8.394;2023-05-16T01:09:01;21.30;;;18.98;;
38865;SDS011;62686;48.984;8.394;2023-05-16T01:14:19;27.98;;;22.67;;
38865;SDS011;62686;48.984;8.394;2023-05-16T01:16:53;27.67;;;22.20;;
38865;SDS011;62686;48.984;8.394;2023-05-16T01:19:31;29.30;;;21.58;;
38865;SDS011;62686;48.984;8.394;2023-05-16T01:22:19;25.13;;;21.13;;
38865;SDS011;62686;48.984;8.394;2023-05-16T01:24:59;25.27;;;20.13;;
38865;SDS011;62686;48.984;8.394;2023-05-16T01:27:34;23.48;;;20.95;;
38865;SDS011;62686;48.984;8.394;2023-05-16T01:30:14;23.75;;;21.02;;
38865;SDS011;62686;48.984;8.394;2023-05-16T01:32:44;25.23;;;20.73;;
38865;SDS011;62686;48.984;8.394;2023-05-16T01:35:13;24.25;;;21.27;;
38865;SDS011;62686;48.984;8.394;2023-05-16T01:37:44;26.95;;;20.70;;
38865;SDS011;62686;48.984;8.394;2023-05-16T01:40:21;32.50;;;23.20;;
38865;SDS011;62686;48.984;8.394;2023-05-16T01:42:55;29.45;;;22.85;;
38865;SDS011;62686;48.984;8.394;2023-05-16T01:45:30;30.90;;;24.80;;
38865;SDS011;62686;48.984;8.394;2023-05-16T01:48:03;25.33;;;22.20;;
38865;SDS011;62686;48.984;8.394;2023-05-16T01:50:34;27.92;;;22.90;;
38865;SDS011;62686;48.984;8.394;2023-05-16T01:53:06;24.77;;;21.60;;
38865;SDS011;62686;48.984;8.394;2023-05-16T01:55:38;27.92;;;22.73;;
38865;SDS011;62686;48.984;8.394;2023-05-16T01:58:11;28.20;;;23.83;;
38865;SDS011;62686;48.984;8.394;2023-05-16T02:00:42;28.98;;;24.02;;
38865;SDS011;62686;48.984;8.394;2023-05-16T02:03:10;27.92;;;24.38;;
38865;SDS011;62686;48.984;8.394;2023-05-16T02:05:38;30.67;;;24.20;;
38865;SDS011;62686;48.984;8.394;2023-05-16T02:08:07;33.47;;;22.67;;
38865;SDS011;62686;48.984;8.394;2023-05-16T02:10:35;27.13;;;23.80;;
38865;SDS011;62686;48.984;8.394;2023-05-16T02:13:05;25.77;;;22.60;;
38865;SDS011;62686;48.984;8.394;2023-05-16T02:15:34;26.58;;;22.92;;
38865;SDS011;62686;48.984;8.394;2023-05-16T02:18:03;26.73;;;22.40;;
38865;SDS011;62686;48.984;8.394;2023-05-16T02:20:31;26.95;;;22.08;;
38865;SDS011;62686;48.984;8.394;2023-05-16T02:22:59;25.73;;;21.35;;
38865;SDS011;62686;48.984;8.394;2023-05-16T02:25:28;28.95;;;22.77;;
38865;SDS011;62686;48.984;8.394;2023-05-16T02:27:56;29.38;;;22.42;;
38865;SDS011;62686;48.984;8.394;2023-05-16T02:30:24;23.60;;;20.08;;
38865;SDS011;62686;48.984;8.394;2023-05-16T02:32:54;23.88;;;20.40;;
38865;SDS011;62686;48.984;8.394;2023-05-16T02:35:22;29.08;;;22.95;;
38865;SDS011;62686;48.984;8.394;2023-05-16T02:37:51;28.55;;;23.63;;
38865;SDS011;62686;48.984;8.394;2023-05-16T02:40:19;26.58;;;22.17;;
38865;SDS011;62686;48.984;8.394;2023-05-16T02:42:47;29.00;;;24.35;;
38865;SDS011;62686;48.984;8.394;2023-05-16T02:45:15;31.63;;;22.97;;
38865;SDS011;62686;48.984;8.394;2023-05-16T02:47:43;29.40;;;23.88;;
38865;SDS011;62686;48.984;8.394;2023-05-16T02:50:18;28.00;;;23.30;;
38865;SDS011;62686;48.984;8.394;2023-05-16T02:52:46;32.20;;;23.23;;
38865;SDS011;62686;48.984;8.394;2023-05-16T02:55:15;28.30;;;22.50;;
38865;SDS011;62686;48.984;8.394;2023-05-16T02:57:46;29.73;;;23.33;;
38865;SDS011;62686;48.984;8.394;2023-05-16T03:00:16;29.45;;;23.80;;
38865;SDS011;62686;48.984;8.394;2023-05-16T03:02:45;30.13;;;23.95;;
38865;SDS011;62686;48.984;8.394;2023-05-16T03:05:13;28.17;;;22.77;;
38865;SDS011;62686;48.984;8.394;2023-05-16T03:07:43;30.42;;;22.55;;
38865;SDS011;62686;48.984;8.394;2023-05-16T03:10:12;28.63;;;22.17;;
38865;SDS011;62686;48.984;8.394;2023-05-16T03:12:40;27.38;;;22.33;;
38865;SDS011;62686;48.984;8.394;2023-05-16T03:15:08;26.95;;;22.45;;
38865;SDS011;62686;48.984;8.394;2023-05-16T03:17:37;29.10;;;21.80;;
38865;SDS011;62686;48.984;8.394;2023-05-16T03:20:05;28.13;;;22.20;;
38865;SDS011;62686;48.984;8.394;2023-05-16T03:22:36;29.48;;;23.15;;
38865;SDS011;62686;48.984;8.394;2023-05-16T03:25:07;26.13;;;21.87;;
38865;SDS011;62686;48.984;8.394;2023-05-16T03:27:35;31.48;;;22.42;;
38865;SDS011;62686;48.984;8.394;2023-05-16T03:30:04;25.85;;;21.20;;
38865;SDS011;62686;48.984;8.394;2023-05-16T03:32:34;27.52;;;21.25;;
38865;SDS011;62686;48.984;8.394;2023-05-16T03:35:02;29.07;;;21.77;;
38865;SDS011;62686;48.984;8.394;2023-05-16T03:37:31;27.75;;;20.92;;
38865;SDS011;62686;48.984;8.394;2023-05-16T03:39:59;26.42;;;20.90;;
38865;SDS011;62686;48.984;8.394;2023-05-16T03:42:31;24.77;;;20.60;;
38865;SDS011;62686;48.984;8.394;2023-05-16T03:45:00;25.40;;;19.25;;
38865;SDS011;62686;48.984;8.394;2023-05-16T03:47:28;26.30;;;20.37;;
38865;SDS011;62686;48.984;8.394;2023-05-16T03:49:57;26.77;;;20.08;;
38865;SDS011;62686;48.984;8.394;2023-05-16T03:52:25;25.20;;;20.40;;
38865;SDS011;62686;48.984;8.394;2023-05-16T03:54:53;25.17;;;18.93;;
38865;SDS011;62686;48.984;8.394;2023-05-16T03:57:22;24.57;;;20.33;;
38865;SDS011;62686;48.984;8.394;2023-05-16T03:59:51;29.03;;;20.40;;
38865;SDS011;62686;48.984;8.394;2023-05-16T04:02:19;24.05;;;19.55;;
38865;SDS011;62686;48.984;8.394;2023-05-16T04:04:48;25.23;;;18.45;;
38865;SDS011;62686;48.984;8.394;2023-05-16T04:07:16;22.27;;;18.77;;
38865;SDS011;62686;48.984;8.394;2023-05-16T04:09:45;25.77;;;18.97;;
38865;SDS011;62686;48.984;8.394;2023-05-16T04:12:13;25.08;;;18.45;;
38865;SDS011;62686;48.984;8.394;2023-05-16T04:14:41;24.20;;;19.23;;
38865;SDS011;62686;48.984;8.394;2023-05-16T04:17:11;22.40;;;18.50;;
38865;SDS011;62686;48.984;8.394;2023-05-16T04:19:40;23.53;;;17.03;;
38865;SDS011;62686;48.984;8.394;2023-05-16T04:22:08;23.95;;;18.02;;
38865;SDS011;62686;48.984;8.394;2023-05-16T04:24:36;25.20;;;17.67;;
38865;SDS011;62686;48.984;8.394;2023-05-16T04:27:04;21.60;;;16.95;;
38865;SDS011;62686;48.984;8.394;2023-05-16T04:29:34;21.73;;;16.87;;
38865;SDS011;62686;48.984;8.394;2023-05-16T04:32:03;24.73;;;17.53;;
38865;SDS011;62686;48.984;8.394;2023-05-16T04:34:34;22.73;;;16.83;;
38865;SDS011;62686;48.984;8.394;2023-05-16T04:37:04;21.77;;;16.60;;
38865;SDS011;62686;48.984;8.394;2023-05-16T04:39:34;21.97;;;17.43;;
38865;SDS011;62686;48.984;8.394;2023-05-16T04:42:04;21.60;;;16.30;;
38865;SDS011;62686;48.984;8.394;2023-05-16T04:44:32;24.97;;;17.37;;
38865;SDS011;62686;48.984;8.394;2023-05-16T04:47:01;27.70;;;17.03;;
38865;SDS011;62686;48.984;8.394;2023-05-16T04:49:29;21.97;;;17.33;;
38865;SDS011;62686;48.984;8.394;2023-05-16T04:51:58;22.03;;;16.20;;
38865;SDS011;62686;48.984;8.394;2023-05-16T04:54:27;22.17;;;15.88;;
38865;SDS011;62686;48.984;8.394;2023-05-16T04:56:55;23.50;;;17.57;;
38865;SDS011;62686;48.984;8.394;2023-05-16T04:59:23;24.37;;;16.83;;
38865;SDS011;62686;48.984;8.394;2023-05-16T05:01:51;22.57;;;16.60;;
38865;SDS011;62686;48.984;8.394;2023-05-16T05:04:19;22.20;;;16.20;;
38865;SDS011;62686;48.984;8.394;2023-05-16T05:06:48;25.83;;;17.20;;
38865;SDS011;62686;48.984;8.394;2023-05-16T05:09:18;21.67;;;16.03;;
38865;SDS011;62686;48.984;8.394;2023-05-16T05:11:46;21.47;;;16.10;;
38865;SDS011;62686;48.984;8.394;2023-05-16T05:14:14;20.20;;;15.77;;
38865;SDS011;62686;48.984;8.394;2023-05-16T05:16:43;20.10;;;15.20;;
38865;SDS011;62686;48.984;8.394;2023-05-16T05:19:11;24.93;;;16.50;;
38865;SDS011;62686;48.984;8.394;2023-05-16T05:21:39;23.83;;;15.73;;
38865;SDS011;62686;48.984;8.394;2023-05-16T05:24:07;22.80;;;15.93;;
38865;SDS011;62686;48.984;8.394;2023-05-16T05:26:37;20.60;;;15.90;;
38865;SDS011;62686;48.984;8.394;2023-05-16T05:29:05;22.67;;;15.90;;
38865;SDS011;62686;48.984;8.394;2023-05-16T05:31:34;20.10;;;15.63;;
38865;SDS011;62686;48.984;8.394;2023-05-16T05:34:02;21.13;;;14.82;;
38865;SDS011;62686;48.984;8.394;2023-05-16T05:36:30;20.58;;;15.77;;
38865;SDS011;62686;48.984;8.394;2023-05-16T05:38:58;21.77;;;15.02;;
38865;SDS011;62686;48.984;8.394;2023-05-16T05:41:26;18.77;;;14.75;;
38865;SDS011;62686;48.984;8.394;2023-05-16T05:43:56;22.05;;;15.32;;
38865;SDS011;62686;48.984;8.394;2023-05-16T05:46:24;22.30;;;14.95;;
38865;SDS011;62686;48.984;8.394;2023-05-16T05:48:52;19.92;;;15.25;;
38865;SDS011;62686;48.984;8.394;2023-05-16T05:51:21;20.75;;;15.25;;
38865;SDS011;62686;48.984;8.394;2023-05-16T05:53:52;19.42;;;15.15;;
38865;SDS011;62686;48.984;8.394;2023-05-16T05:56:21;22.80;;;14.95;;
38865;SDS011;62686;48.984;8.394;2023-05-16T05:58:50;21.58;;;14.98;;
38865;SDS011;62686;48.984;8.394;2023-05-16T06:01:19;22.13;;;14.63;;
38865;SDS011;62686;48.984;8.394;2023-05-16T06:03:48;18.35;;;13.95;;
38865;SDS011;62686;48.984;8.394;2023-05-16T06:06:17;19.15;;;13.40;;
38865;SDS011;62686;48.984;8.394;2023-05-16T06:08:45;19.85;;;13.93;;
38865;SDS011;62686;48.984;8.394;2023-05-16T06:11:23;18.02;;;13.05;;
38865;SDS011;62686;48.984;8.394;2023-05-16T06:13:52;17.02;;;12.65;;
38865;SDS011;62686;48.984;8.394;2023-05-16T06:16:27;16.60;;;12.45;;
38865;SDS011;62686;48.984;8.394;2023-05-16T06:18:55;14.07;;;10.73;;
38865;SDS011;62686;48.984;8.394;2023-05-16T06:21:24;15.07;;;11.05;;
38865;SDS011;62686;48.984;8.394;2023-05-16T06:23:52;12.52;;;9.35;;
38865;SDS011;62686;48.984;8.394;2023-05-16T06:26:21;13.10;;;9.32;;
38865;SDS011;62686;48.984;8.394;2023-05-16T06:28:50;18.45;;;9.95;;
38865;SDS011;62686;48.984;8.394;2023-05-16T06:31:18;11.45;;;8.70;;
38865;SDS011;62686;48.984;8.394;2023-05-16T06:33:48;13.40;;;8.52;;
38865;SDS011;62686;48.984;8.394;2023-05-16T06:36:18;13.02;;;8.35;;
38865;SDS011;62686;48.984;8.394;2023-05-16T06:38:47;9.95;;;7.13;;
38865;SDS011;62686;48.984;8.394;2023-05-16T06:41:16;9.35;;;6.85;;
38865;SDS011;62686;48.984;8.394;2023-05-16T06:43:44;10.25;;;7.45;;
38865;SDS011;62686;48.984;8.394;2023-05-16T06:46:13;7.07;;;5.72;;
38865;SDS011;62686;48.984;8.394;2023-05-16T06:48:41;8.70;;;6.28;;
38865;SDS011;62686;48.984;8.394;2023-05-16T06:51:11;7.68;;;5.63;;
38865;SDS011;62686;48.984;8.394;2023-05-16T06:53:39;10.52;;;5.57;;
38865;SDS011;62686;48.984;8.394;2023-05-16T06:56:08;7.80;;;5.53;;
38865;SDS011;62686;48.984;8.394;2023-05-16T06:58:36;6.63;;;5.28;;
38865;SDS011;62686;48.984;8.394;2023-05-16T07:01:04;7.25;;;5.47;;
38865;SDS011;62686;48.984;8.394;2023-05-16T07:03:33;5.60;;;4.78;;
38865;SDS011;62686;48.984;8.394;2023-05-16T07:06:02;5.47;;;4.75;;
38865;SDS011;62686;48.984;8.394;2023-05-16T07:08:31;7.32;;;4.03;;
38865;SDS011;62686;48.984;8.394;2023-05-16T07:11:01;5.55;;;4.07;;
38865;SDS011;62686;48.984;8.394;2023-05-16T07:13:29;6.93;;;4.30;;
38865;SDS011;62686;48.984;8.394;2023-05-16T07:15:58;3.75;;;3.38;;
38865;SDS011;62686;48.984;8.394;2023-05-16T07:18:26;6.68;;;3.20;;
38865;SDS011;62686;48.984;8.394;2023-05-16T07:20:54;4.38;;;2.90;;
38865;SDS011;62686;48.984;8.394;2023-05-16T07:23:23;3.17;;;2.38;;
38865;SDS011;62686;48.984;8.394;2023-05-16T07:25:53;2.55;;;2.20;;
38865;SDS011;62686;48.984;8.394;2023-05-16T07:28:21;2.03;;;1.73;;
38865;SDS011;62686;48.984;8.394;2023-05-16T07:30:50;2.20;;;1.77;;
38865;SDS011;62686;48.984;8.394;2023-05-16T07:33:18;2.55;;;1.73;;
38865;SDS011;62686;48.984;8.394;2023-05-16T07:35:46;1.80;;;1.40;;
38865;SDS011;62686;48.984;8.394;2023-05-16T07:38:19;2.33;;;1.40;;
38865;SDS011;62686;48.984;8.394;2023-05-16T07:40:49;1.35;;;1.25;;
38865;SDS011;62686;48.984;8.394;2023-05-16T07:43:21;4.93;;;1.55;;
38865;SDS011;62686;48.984;8.394;2023-05-16T07:45:49;3.78;;;1.33;;
38865;SDS011;62686;48.984;8.394;2023-05-16T07:48:17;3.00;;;1.20;;
38865;SDS011;62686;48.984;8.394;2023-05-16T07:50:48;1.90;;;1.30;;
38865;SDS011;62686;48.984;8.394;2023-05-16T07:53:20;1.48;;;1.17;;
38865;SDS011;62686;48.984;8.394;2023-05-16T07:55:51;3.45;;;1.48;;
38865;SDS011;62686;48.984;8.394;2023-05-16T07:58:23;1.65;;;1.27;;
38865;SDS011;62686;48.984;8.394;2023-05-16T08:00:52;2.55;;;1.30;;
38865;SDS011;62686;48.984;8.394;2023-05-16T08:03:20;1.75;;;1.45;;
38865;SDS011;62686;48.984;8.394;2023-05-16T08:05:50;1.75;;;1.45;;
38865;SDS011;62686;48.984;8.394;2023-05-16T08:08:18;2.88;;;1.40;;
38865;SDS011;62686;48.984;8.394;2023-05-16T08:10:50;1.52;;;1.33;;
38865;SDS011;62686;48.984;8.394;2023-05-16T08:13:18;2.50;;;1.30;;
38865;SDS011;62686;48.984;8.394;2023-05-16T08:15:49;1.25;;;1.10;;
38865;SDS011;62686;48.984;8.394;2023-05-16T08:18:18;1.40;;;1.30;;
38865;SDS011;62686;48.984;8.394;2023-05-16T08:20:48;1.10;;;1.00;;
38865;SDS011;62686;48.984;8.394;2023-05-16T08:23:19;3.70;;;1.73;;
38865;SDS011;62686;48.984;8.394;2023-05-16T08:26:09;1.52;;;1.10;;
38865;SDS011;62686;48.984;8.394;2023-05-16T08:28:37;1.30;;;1.20;;
38865;SDS011;62686;48.984;8.394;2023-05-16T08:33:59;2.17;;;1.25;;
38865;SDS011;62686;48.984;8.394;2023-05-16T08:36:28;3.70;;;1.20;;
38865;SDS011;62686;48.984;8.394;2023-05-16T08:38:57;1.08;;;0.98;;
38865;SDS011;62686;48.984;8.394;2023-05-16T08:41:25;1.33;;;1.10;;
38865;SDS011;62686;48.984;8.394;2023-05-16T08:43:53;1.50;;;1.20;;
38865;SDS011;62686;48.984;8.394;2023-05-16T08:46:22;3.72;;;1.10;;
38865;SDS011;62686;48.984;8.394;2023-05-16T08:48:51;2.22;;;1.27;;
38865;SDS011;62686;48.984;8.394;2023-05-16T08:51:21;2.10;;;1.10;;
38865;SDS011;62686;48.984;8.394;2023-05-16T08:53:53;1.50;;;1.08;;
38865;SDS011;62686;48.984;8.394;2023-05-16T08:56:26;1.23;;;1.10;;
38865;SDS011;62686;48.984;8.394;2023-05-16T08:58:55;1.30;;;1.20;;
38865;SDS011;62686;48.984;8.394;2023-05-16T09:01:24;3.30;;;1.40;;
38865;SDS011;62686;48.984;8.394;2023-05-16T09:03:53;2.78;;;1.45;;
38865;SDS011;62686;48.984;8.394;2023-05-16T09:06:24;2.10;;;1.50;;
38865;SDS011;62686;48.984;8.394;2023-05-16T09:08:52;3.33;;;1.45;;
38865;SDS011;62686;48.984;8.394;2023-05-16T09:11:20;2.03;;;1.52;;
38865;SDS011;62686;48.984;8.394;2023-05-16T09:13:49;1.70;;;1.38;;
38865;SDS011;62686;48.984;8.394;2023-05-16T09:16:18;4.05;;;1.45;;
38865;SDS011;62686;48.984;8.394;2023-05-16T09:18:52;1.60;;;1.50;;
38865;SDS011;62686;48.984;8.394;2023-05-16T09:21:25;1.70;;;1.27;;
38865;SDS011;62686;48.984;8.394;2023-05-16T09:23:54;5.30;;;1.27;;
38865;SDS011;62686;48.984;8.394;2023-05-16T09:26:23;2.08;;;1.20;;
38865;SDS011;62686;48.984;8.394;2023-05-16T09:28:52;2.10;;;1.10;;
38865;SDS011;62686;48.984;8.394;2023-05-16T09:31:21;1.65;;;1.38;;
38865;SDS011;62686;48.984;8.394;2023-05-16T09:33:52;1.25;;;1.15;;
38865;SDS011;62686;48.984;8.394;2023-05-16T09:36:20;2.17;;;1.20;;
38865;SDS011;62686;48.984;8.394;2023-05-16T09:38:51;3.22;;;1.40;;
38865;SDS011;62686;48.984;8.394;2023-05-16T09:41:20;4.35;;;1.40;;
38865;SDS011;62686;48.984;8.394;2023-05-16T09:43:49;2.05;;;1.30;;
38865;SDS011;62686;48.984;8.394;2023-05-16T09:46:17;1.60;;;1.30;;
38865;SDS011;62686;48.984;8.394;2023-05-16T09:48:46;1.48;;;1.33;;
38865;SDS011;62686;48.984;8.394;2023-05-16T09:51:14;4.68;;;1.33;;
38865;SDS011;62686;48.984;8.394;2023-05-16T09:53:49;2.13;;;1.08;;
38865;SDS011;62686;48.984;8.394;2023-05-16T09:56:20;1.85;;;1.00;;
38865;SDS011;62686;48.984;8.394;2023-05-16T09:59:09;3.63;;;1.10;;
38865;SDS011;62686;48.984;8.394;2023-05-16T10:01:38;1.70;;;1.10;;
38865;SDS011;62686;48.984;8.394;2023-05-16T10:04:13;2.65;;;1.02;;
38865;SDS011;62686;48.984;8.394;2023-05-16T10:06:42;1.00;;;0.90;;
38865;SDS011;62686;48.984;8.394;2023-05-16T10:09:14;1.63;;;0.93;;
38865;SDS011;62686;48.984;8.394;2023-05-16T10:11:43;1.52;;;1.00;;
38865;SDS011;62686;48.984;8.394;2023-05-16T10:14:13;1.00;;;0.80;;
38865;SDS011;62686;48.984;8.394;2023-05-16T10:16:45;1.30;;;1.00;;
38865;SDS011;62686;48.984;8.394;2023-05-16T10:19:15;2.97;;;1.10;;
38865;SDS011;62686;48.984;8.394;2023-05-16T10:21:47;1.63;;;0.93;;
38865;SDS011;62686;48.984;8.394;2023-05-16T10:24:22;2.45;;;1.00;;
38865;SDS011;62686;48.984;8.394;2023-05-16T10:26:58;2.30;;;1.10;;
38865;SDS011;62686;48.984;8.394;2023-05-16T10:29:29;1.08;;;1.00;;
38865;SDS011;62686;48.984;8.394;2023-05-16T10:32:03;2.55;;;0.90;;
38865;SDS011;62686;48.984;8.394;2023-05-16T10:34:37;1.40;;;0.95;;
38865;SDS011;62686;48.984;8.394;2023-05-16T10:37:07;1.05;;;0.80;;
38865;SDS011;62686;48.984;8.394;2023-05-16T10:39:38;1.73;;;0.90;;
38865;SDS011;62686;48.984;8.394;2023-05-16T10:42:07;1.15;;;0.70;;
38865;SDS011;62686;48.984;8.394;2023-05-16T10:44:36;1.48;;;0.80;;
38865;SDS011;62686;48.984;8.394;2023-05-16T10:47:06;1.85;;;0.88;;
38865;SDS011;62686;48.984;8.394;2023-05-16T10:49:37;1.70;;;0.80;;
38865;SDS011;62686;48.984;8.394;2023-05-16T10:52:08;1.02;;;0.70;;
38865;SDS011;62686;48.984;8.394;2023-05-16T10:54:39;1.13;;;0.80;;
38865;SDS011;62686;48.984;8.394;2023-05-16T10:57:15;1.83;;;0.75;;
38865;SDS011;62686;48.984;8.394;2023-05-16T10:59:47;1.98;;;0.73;;
38865;SDS011;62686;48.984;8.394;2023-05-16T11:02:22;3.78;;;0.80;;
38865;SDS011;62686;48.984;8.394;2023-05-16T11:04:53;2.65;;;0.77;;
38865;SDS011;62686;48.984;8.394;2023-05-16T11:07:25;0.70;;;0.60;;
38865;SDS011;62686;48.984;8.394;2023-05-16T11:10:04;0.50;;;0.40;;
38865;SDS011;62686;48.984;8.394;2023-05-16T11:12:43;2.65;;;0.55;;
38865;SDS011;62686;48.984;8.394;2023-05-16T11:15:22;4.47;;;0.60;;
38865;SDS011;62686;48.984;8.394;2023-05-16T11:18:02;2.08;;;0.70;;
38865;SDS011;62686;48.984;8.394;2023-05-16T11:20:32;1.73;;;0.60;;
38865;SDS011;62686;48.984;8.394;2023-05-16T11:23:21;3.05;;;0.80;;
38865;SDS011;62686;48.984;8.394;2023-05-16T11:25:55;2.58;;;0.77;;
38865;SDS011;62686;48.984;8.394;2023-05-16T11:28:26;2.03;;;0.60;;
38865;SDS011;62686;48.984;8.394;2023-05-16T11:30:56;2.72;;;0.82;;
38865;SDS011;62686;48.984;8.394;2023-05-16T11:33:26;2.78;;;0.98;;
38865;SDS011;62686;48.984;8.394;2023-05-16T11:36:01;0.75;;;0.70;;
38865;SDS011;62686;48.984;8.394;2023-05-16T11:38:39;1.42;;;0.60;;
38865;SDS011;62686;48.984;8.394;2023-05-16T11:41:10;2.30;;;0.77;;
38865;SDS011;62686;48.984;8.394;2023-05-16T11:43:41;3.55;;;0.77;;
38865;SDS011;62686;48.984;8.394;2023-05-16T11:46:10;0.60;;;0.60;;
38865;SDS011;62686;48.984;8.394;2023-05-16T11:48:39;1.88;;;0.60;;
38865;SDS011;62686;48.984;8.394;2023-05-16T11:51:12;0.80;;;0.70;;
38865;SDS011;62686;48.984;8.394;2023-05-16T11:53:45;1.90;;;0.80;;
38865;SDS011;62686;48.984;8.394;2023-05-16T11:56:16;1.60;;;0.73;;
38865;SDS011;62686;48.984;8.394;2023-05-16T11:58:46;1.80;;;0.98;;
38865;SDS011;62686;48.984;8.394;2023-05-16T12:01:18;4.13;;;0.90;;
38865;SDS011;62686;48.984;8.394;2023-05-16T12:03:52;0.80;;;0.70;;
38865;SDS011;62686;48.984;8.394;2023-05-16T12:06:28;2.63;;;0.70;;
38865;SDS011;62686;48.984;8.394;2023-05-16T12:08:59;3.25;;;1.00;;
38865;SDS011;62686;48.984;8.394;2023-05-16T12:11:40;2.03;;;0.70;;
38865;SDS011;62686;48.984;8.394;2023-05-16T12:14:09;1.98;;;0.80;;
38865;SDS011;62686;48.984;8.394;2023-05-16T12:16:40;4.47;;;1.02;;
38865;SDS011;62686;48.984;8.394;2023-05-16T12:19:09;1.77;;;1.00;;
38865;SDS011;62686;48.984;8.394;2023-05-16T12:21:39;2.10;;;1.00;;
38865;SDS011;62686;48.984;8.394;2023-05-16T12:24:08;1.60;;;0.98;;
38865;SDS011;62686;48.984;8.394;2023-05-16T12:26:39;0.95;;;0.80;;
38865;SDS011;62686;48.984;8.394;2023-05-16T12:29:10;1.42;;;0.82;;
38865;SDS011;62686;48.984;8.394;2023-05-16T12:31:39;2.00;;;1.10;;
38865;SDS011;62686;48.984;8.394;2023-05-16T12:34:21;2.95;;;1.00;;
38865;SDS011;62686;48.984;8.394;2023-05-16T12:36:59;1.70;;;1.10;;
38865;SDS011;62686;48.984;8.394;2023-05-16T12:39:35;3.20;;;1.42;;
38865;SDS011;62686;48.984;8.394;2023-05-16T12:42:06;1.48;;;0.98;;
38865;SDS011;62686;48.984;8.394;2023-05-16T12:44:39;1.92;;;1.15;;
38865;SDS011;62686;48.984;8.394;2023-05-16T12:47:19;3.70;;;1.50;;
38865;SDS011;62686;48.984;8.394;2023-05-16T12:49:49;2.88;;;1.42;;
38865;SDS011;62686;48.984;8.394;2023-05-16T12:52:20;4.95;;;1.40;;
38865;SDS011;62686;48.984;8.394;2023-05-16T12:54:49;3.72;;;1.60;;
38865;SDS011;62686;48.984;8.394;2023-05-16T12:57:19;5.70;;;1.58;;
38865;SDS011;62686;48.984;8.394;2023-05-16T12:59:54;7.55;;;1.55;;
38865;SDS011;62686;48.984;8.394;2023-05-16T13:02:27;3.95;;;1.70;;
38865;SDS011;62686;48.984;8.394;2023-05-16T13:04:55;8.13;;;1.77;;
38865;SDS011;62686;48.984;8.394;2023-05-16T13:07:28;5.13;;;1.48;;
38865;SDS011;62686;48.984;8.394;2023-05-16T13:09:57;4.75;;;1.70;;
38865;SDS011;62686;48.984;8.394;2023-05-16T13:12:27;8.38;;;2.63;;
38865;SDS011;62686;48.984;8.394;2023-05-16T13:14:57;3.95;;;2.03;;
38865;SDS011;62686;48.984;8.394;2023-05-16T13:17:26;3.85;;;1.48;;
38865;SDS011;62686;48.984;8.394;2023-05-16T13:19:55;4.07;;;1.63;;
38865;SDS011;62686;48.984;8.394;2023-05-16T13:22:24;4.07;;;1.60;;
38865;SDS011;62686;48.984;8.394;2023-05-16T13:24:52;4.65;;;1.77;;
38865;SDS011;62686;48.984;8.394;2023-05-16T13:27:21;6.53;;;2.05;;
38865;SDS011;62686;48.984;8.394;2023-05-16T13:29:51;6.45;;;1.90;;
38865;SDS011;62686;48.984;8.394;2023-05-16T13:32:25;5.20;;;1.73;;
38865;SDS011;62686;48.984;8.394;2023-05-16T13:34:53;5.40;;;1.80;;
38865;SDS011;62686;48.984;8.394;2023-05-16T13:37:22;6.75;;;2.30;;
38865;SDS011;62686;48.984;8.394;2023-05-16T13:39:51;5.88;;;1.85;;
38865;SDS011;62686;48.984;8.394;2023-05-16T13:42:21;7.03;;;2.25;;
38865;SDS011;62686;48.984;8.394;2023-05-16T13:44:51;7.00;;;1.85;;
38865;SDS011;62686;48.984;8.394;2023-05-16T13:47:19;6.18;;;1.85;;
38865;SDS011;62686;48.984;8.394;2023-05-16T13:49:50;5.40;;;2.45;;
38865;SDS011;62686;48.984;8.394;2023-05-16T13:52:19;7.65;;;1.92;;
38865;SDS011;62686;48.984;8.394;2023-05-16T13:54:47;7.32;;;2.08;;
38865;SDS011;62686;48.984;8.394;2023-05-16T13:57:15;7.07;;;2.05;;
38865;SDS011;62686;48.984;8.394;2023-05-16T13:59:44;5.43;;;1.83;;
38865;SDS011;62686;48.984;8.394;2023-05-16T14:02:30;6.60;;;2.30;;
38865;SDS011;62686;48.984;8.394;2023-05-16T14:04:59;6.90;;;1.80;;
38865;SDS011;62686;48.984;8.394;2023-05-16T14:07:30;8.85;;;2.42;;
38865;SDS011;62686;48.984;8.394;2023-05-16T14:09:58;6.70;;;1.75;;
38865;SDS011;62686;48.984;8.394;2023-05-16T14:12:34;5.18;;;1.73;;
38865;SDS011;62686;48.984;8.394;2023-05-16T14:15:03;6.47;;;1.77;;
38865;SDS011;62686;48.984;8.394;2023-05-16T14:17:34;4.75;;;1.60;;
38865;SDS011;62686;48.984;8.394;2023-05-16T14:20:08;8.10;;;1.50;;
38865;SDS011;62686;48.984;8.394;2023-05-16T14:22:40;8.32;;;2.03;;
38865;SDS011;62686;48.984;8.394;2023-05-16T14:25:09;9.13;;;2.05;;
38865;SDS011;62686;48.984;8.394;2023-05-16T14:27:40;6.57;;;2.03;;
38865;SDS011;62686;48.984;8.394;2023-05-16T14:30:09;8.48;;;2.35;;
38865;SDS011;62686;48.984;8.394;2023-05-16T14:32:40;5.07;;;1.65;;
38865;SDS011;62686;48.984;8.394;2023-05-16T14:35:08;4.43;;;1.67;;
38865;SDS011;62686;48.984;8.394;2023-05-16T14:37:38;6.90;;;1.58;;
38865;SDS011;62686;48.984;8.394;2023-05-16T14:40:06;5.00;;;1.92;;
38865;SDS011;62686;48.984;8.394;2023-05-16T14:42:35;8.60;;;2.03;;
38865;SDS011;62686;48.984;8.394;2023-05-16T14:47:56;6.43;;;1.48;;
38865;SDS011;62686;48.984;8.394;2023-05-16T14:50:24;5.18;;;1.65;;
38865;SDS011;62686;48.984;8.394;2023-05-16T14:52:53;6.32;;;1.92;;
38865;SDS011;62686;48.984;8.394;2023-05-16T14:55:22;4.05;;;1.40;;
38865;SDS011;62686;48.984;8.394;2023-05-16T14:57:51;7.15;;;1.73;;
38865;SDS011;62686;48.984;8.394;2023-05-16T15:00:24;6.25;;;1.63;;
38865;SDS011;62686;48.984;8.394;2023-05-16T15:02:56;4.55;;;1.48;;
38865;SDS011;62686;48.984;8.394;2023-05-16T15:05:27;5.20;;;1.52;;
38865;SDS011;62686;48.984;8.394;2023-05-16T15:07:56;5.60;;;2.00;;
38865;SDS011;62686;48.984;8.394;2023-05-16T15:10:25;7.82;;;1.60;;
38865;SDS011;62686;48.984;8.394;2023-05-16T15:12:55;3.42;;;1.67;;
38865;SDS011;62686;48.984;8.394;2023-05-16T15:15:27;9.02;;;1.70;;